sensor_id;sensor_type;location;lat;lon;timestamp;temperature;humidity
9949;DHT22;5013;51.840;8.276;2023-09-19T00:01:42;16.70;71.30
9949;DHT22;5013;51.840;8.276;2023-09-19T00:04:11;16.60;1.00
9949;DHT22;5013;51.840;8.276;2023-09-19T00:06:40;16.70;95.60
9949;DHT22;5013;51.840;8.276;2023-09-19T00:09:06;16.80;1.00
9949;DHT22;5013;51.840;8.276;2023-09-19T00:11:36;16.70;1.00
9949;DHT22;5013;51.840;8.276;2023-09-19T00:14:03;16.80;1.00
9949;DHT22;5013;51.840;8.276;2023-09-19T00:16:30;16.80;1.00
9949;DHT22;5013;51.840;8.276;2023-09-19T00:18:55;16.80;1.00
9949;DHT22;5013;51.840;8.276;2023-09-19T00:21:21;16.70;1.00
9949;DHT22;5013;51.840;8.276;2023-09-19T00:23:47;16.80;1.00
9949;DHT22;5013;51.840;8.276;2023-09-19T00:26:13;16.70;1.00
9949;DHT22;5013;51.840;8.276;2023-09-19T00:28:39;16.70;1.00
9949;DHT22;5013;51.840;8.276;2023-09-19T00:31:07;16.70;1.00
9949;DHT22;5013;51.840;8.276;2023-09-19T00:33:34;16.70;1.00
9949;DHT22;5013;51.840;8.276;2023-09-19T00:35:59;16.60;1.00
9949;DHT22;5013;51.840;8.276;2023-09-19T00:38:27;16.70;1.00
9949;DHT22;5013;51.840;8.276;2023-09-19T00:40:53;16.60;1.00
9949;DHT22;5013;51.840;8.276;2023-09-19T00:43:20;16.60;1.00
9949;DHT22;5013;51.840;8.276;2023-09-19T00:45:48;16.50;1.00
9949;DHT22;5013;51.840;8.276;2023-09-19T00:48:15;16.60;1.00
9949;DHT22;5013;51.840;8.276;2023-09-19T00:50:42;16.50;28.10
9949;DHT22;5013;51.840;8.276;2023-09-19T00:53:09;16.60;21.50
9949;DHT22;5013;51.840;8.276;2023-09-19T00:55:39;16.50;1.00
9949;DHT22;5013;51.840;8.276;2023-09-19T00:58:05;16.50;1.00
9949;DHT22;5013;51.840;8.276;2023-09-19T01:00:34;16.50;1.00
9949;DHT22;5013;51.840;8.276;2023-09-19T01:03:00;16.50;99.90
9949;DHT22;5013;51.840;8.276;2023-09-19T01:05:29;16.50;1.00
9949;DHT22;5013;51.840;8.276;2023-09-19T01:07:57;16.40;99.90
9949;DHT22;5013;51.840;8.276;2023-09-19T01:10:24;16.40;99.90
9949;DHT22;5013;51.840;8.276;2023-09-19T01:13:07;16.50;53.00
9949;DHT22;5013;51.840;8.276;2023-09-19T01:18:27;16.60;99.90
9949;DHT22;5013;51.840;8.276;2023-09-19T01:27:18;16.60;61.60
9949;DHT22;5013;51.840;8.276;2023-09-19T01:29:49;16.60;25.20
9949;DHT22;5013;51.840;8.276;2023-09-19T01:32:19;16.60;1.00
9949;DHT22;5013;51.840;8.276;2023-09-19T01:34:52;16.60;1.00
9949;DHT22;5013;51.840;8.276;2023-09-19T01:37:20;16.60;99.90
9949;DHT22;5013;51.840;8.276;2023-09-19T01:39:56;16.70;99.90
9949;DHT22;5013;51.840;8.276;2023-09-19T01:46:14;16.60;1.00
9949;DHT22;5013;51.840;8.276;2023-09-19T01:48:43;16.60;1.00
9949;DHT22;5013;51.840;8.276;2023-09-19T01:51:18;16.50;1.00
9949;DHT22;5013;51.840;8.276;2023-09-19T01:53:57;16.50;1.00
9949;DHT22;5013;51.840;8.276;2023-09-19T01:56:36;16.50;1.00
9949;DHT22;5013;51.840;8.276;2023-09-19T01:59:10;16.40;99.90
9949;DHT22;5013;51.840;8.276;2023-09-19T02:01:39;16.40;99.90
9949;DHT22;5013;51.840;8.276;2023-09-19T02:04:05;16.40;1.00
9949;DHT22;5013;51.840;8.276;2023-09-19T02:06:32;16.40;99.90
9949;DHT22;5013;51.840;8.276;2023-09-19T02:08:59;16.30;99.90
9949;DHT22;5013;51.840;8.276;2023-09-19T02:11:25;16.30;99.90
9949;DHT22;5013;51.840;8.276;2023-09-19T02:13:50;16.30;99.90
9949;DHT22;5013;51.840;8.276;2023-09-19T02:16:19;16.30;99.90
9949;DHT22;5013;51.840;8.276;2023-09-19T02:18:49;16.30;99.90
9949;DHT22;5013;51.840;8.276;2023-09-19T02:21:17;16.30;99.90
9949;DHT22;5013;51.840;8.276;2023-09-19T02:23:46;16.30;99.90
9949;DHT22;5013;51.840;8.276;2023-09-19T02:26:13;16.30;99.90
9949;DHT22;5013;51.840;8.276;2023-09-19T02:28:39;16.40;99.90
9949;DHT22;5013;51.840;8.276;2023-09-19T02:31:04;16.30;99.90
9949;DHT22;5013;51.840;8.276;2023-09-19T02:33:33;16.20;32.60
9949;DHT22;5013;51.840;8.276;2023-09-19T02:35:59;16.20;99.90
9949;DHT22;5013;51.840;8.276;2023-09-19T02:38:25;16.20;99.90
9949;DHT22;5013;51.840;8.276;2023-09-19T02:40:52;16.10;25.30
9949;DHT22;5013;51.840;8.276;2023-09-19T02:43:18;16.10;99.90
9949;DHT22;5013;51.840;8.276;2023-09-19T02:45:45;16.10;1.00
9949;DHT22;5013;51.840;8.276;2023-09-19T02:48:12;16.10;99.90
9949;DHT22;5013;51.840;8.276;2023-09-19T02:50:37;16.10;99.90
9949;DHT22;5013;51.840;8.276;2023-09-19T02:53:04;16.00;99.90
9949;DHT22;5013;51.840;8.276;2023-09-19T02:55:30;16.00;99.90
9949;DHT22;5013;51.840;8.276;2023-09-19T02:57:57;16.00;99.90
9949;DHT22;5013;51.840;8.276;2023-09-19T03:00:23;16.10;29.70
9949;DHT22;5013;51.840;8.276;2023-09-19T03:02:50;16.10;99.50
9949;DHT22;5013;51.840;8.276;2023-09-19T03:05:17;16.00;1.00
9949;DHT22;5013;51.840;8.276;2023-09-19T03:07:43;16.00;48.00
9949;DHT22;5013;51.840;8.276;2023-09-19T03:10:11;16.00;1.00
9949;DHT22;5013;51.840;8.276;2023-09-19T03:12:36;15.90;1.00
9949;DHT22;5013;51.840;8.276;2023-09-19T03:15:05;15.90;1.00
9949;DHT22;5013;51.840;8.276;2023-09-19T03:17:33;15.80;99.90
9949;DHT22;5013;51.840;8.276;2023-09-19T03:19:59;15.80;45.90
9949;DHT22;5013;51.840;8.276;2023-09-19T03:22:26;15.70;1.00
9949;DHT22;5013;51.840;8.276;2023-09-19T03:24:52;15.70;56.40
9949;DHT22;5013;51.840;8.276;2023-09-19T03:27:18;15.60;99.90
9949;DHT22;5013;51.840;8.276;2023-09-19T03:29:44;15.60;99.90
9949;DHT22;5013;51.840;8.276;2023-09-19T03:32:10;15.50;99.90
9949;DHT22;5013;51.840;8.276;2023-09-19T03:34:37;15.50;45.40
9949;DHT22;5013;51.840;8.276;2023-09-19T03:37:07;15.40;99.90
9949;DHT22;5013;51.840;8.276;2023-09-19T03:39:33;15.40;99.90
9949;DHT22;5013;51.840;8.276;2023-09-19T03:41:58;15.40;99.90
9949;DHT22;5013;51.840;8.276;2023-09-19T03:44:24;15.40;99.90
9949;DHT22;5013;51.840;8.276;2023-09-19T03:46:49;15.40;1.00
9949;DHT22;5013;51.840;8.276;2023-09-19T03:49:15;15.30;1.00
9949;DHT22;5013;51.840;8.276;2023-09-19T03:51:41;15.30;1.00
9949;DHT22;5013;51.840;8.276;2023-09-19T03:54:07;15.30;1.00
9949;DHT22;5013;51.840;8.276;2023-09-19T03:56:33;15.30;1.00
9949;DHT22;5013;51.840;8.276;2023-09-19T03:58:58;15.30;1.00
9949;DHT22;5013;51.840;8.276;2023-09-19T04:01:24;15.20;1.00
9949;DHT22;5013;51.840;8.276;2023-09-19T04:03:50;15.20;99.90
9949;DHT22;5013;51.840;8.276;2023-09-19T04:06:17;15.20;99.90
9949;DHT22;5013;51.840;8.276;2023-09-19T04:08:43;15.20;1.00
9949;DHT22;5013;51.840;8.276;2023-09-19T04:11:10;15.20;99.90
9949;DHT22;5013;51.840;8.276;2023-09-19T04:13:36;15.10;99.90
9949;DHT22;5013;51.840;8.276;2023-09-19T04:16:02;15.10;99.90
9949;DHT22;5013;51.840;8.276;2023-09-19T04:18:29;15.10;99.90
9949;DHT22;5013;51.840;8.276;2023-09-19T04:20:58;15.10;99.90
9949;DHT22;5013;51.840;8.276;2023-09-19T04:23:23;15.10;1.00
9949;DHT22;5013;51.840;8.276;2023-09-19T04:25:49;15.00;1.00
9949;DHT22;5013;51.840;8.276;2023-09-19T04:28:15;15.00;1.00
9949;DHT22;5013;51.840;8.276;2023-09-19T04:30:41;15.00;1.00
9949;DHT22;5013;51.840;8.276;2023-09-19T04:33:07;15.00;1.00
9949;DHT22;5013;51.840;8.276;2023-09-19T04:35:33;15.00;1.00
9949;DHT22;5013;51.840;8.276;2023-09-19T04:38:00;14.90;1.00
9949;DHT22;5013;51.840;8.276;2023-09-19T04:40:25;14.90;1.00
9949;DHT22;5013;51.840;8.276;2023-09-19T04:42:55;14.90;1.00
9949;DHT22;5013;51.840;8.276;2023-09-19T04:45:27;14.90;1.00
9949;DHT22;5013;51.840;8.276;2023-09-19T04:47:53;14.90;1.00
9949;DHT22;5013;51.840;8.276;2023-09-19T04:50:19;14.80;1.00
9949;DHT22;5013;51.840;8.276;2023-09-19T04:52:49;14.80;1.00
9949;DHT22;5013;51.840;8.276;2023-09-19T04:55:17;14.80;1.00
9949;DHT22;5013;51.840;8.276;2023-09-19T04:57:45;14.80;1.00
9949;DHT22;5013;51.840;8.276;2023-09-19T05:00:12;14.80;1.00
9949;DHT22;5013;51.840;8.276;2023-09-19T05:02:42;14.80;1.00
9949;DHT22;5013;51.840;8.276;2023-09-19T05:05:09;14.70;1.00
9949;DHT22;5013;51.840;8.276;2023-09-19T05:07:40;14.70;1.00
9949;DHT22;5013;51.840;8.276;2023-09-19T05:10:07;14.70;1.00
9949;DHT22;5013;51.840;8.276;2023-09-19T05:12:34;14.70;99.90
9949;DHT22;5013;51.840;8.276;2023-09-19T05:15:01;14.70;99.90
9949;DHT22;5013;51.840;8.276;2023-09-19T05:17:28;14.70;99.90
9949;DHT22;5013;51.840;8.276;2023-09-19T05:19:53;14.70;99.90
9949;DHT22;5013;51.840;8.276;2023-09-19T05:22:19;14.60;99.90
9949;DHT22;5013;51.840;8.276;2023-09-19T05:24:44;14.70;99.90
9949;DHT22;5013;51.840;8.276;2023-09-19T05:27:12;14.70;99.90
9949;DHT22;5013;51.840;8.276;2023-09-19T05:29:38;14.60;99.90
9949;DHT22;5013;51.840;8.276;2023-09-19T05:32:04;14.70;99.90
9949;DHT22;5013;51.840;8.276;2023-09-19T05:34:31;14.70;99.90
9949;DHT22;5013;51.840;8.276;2023-09-19T05:36:56;14.70;99.90
9949;DHT22;5013;51.840;8.276;2023-09-19T05:39:22;14.70;99.90
9949;DHT22;5013;51.840;8.276;2023-09-19T05:41:48;14.70;99.90
9949;DHT22;5013;51.840;8.276;2023-09-19T05:44:13;14.70;99.90
9949;DHT22;5013;51.840;8.276;2023-09-19T05:46:42;14.70;99.90
9949;DHT22;5013;51.840;8.276;2023-09-19T05:49:07;14.70;99.90
9949;DHT22;5013;51.840;8.276;2023-09-19T05:51:33;14.80;44.80
9949;DHT22;5013;51.840;8.276;2023-09-19T05:54:00;14.80;1.00
9949;DHT22;5013;51.840;8.276;2023-09-19T05:56:26;14.80;92.60
9949;DHT22;5013;51.840;8.276;2023-09-19T05:58:52;14.80;1.00
9949;DHT22;5013;51.840;8.276;2023-09-19T06:01:18;14.80;1.00
9949;DHT22;5013;51.840;8.276;2023-09-19T06:03:44;14.80;1.00
9949;DHT22;5013;51.840;8.276;2023-09-19T06:06:10;14.80;1.00
9949;DHT22;5013;51.840;8.276;2023-09-19T06:08:35;14.70;1.00
9949;DHT22;5013;51.840;8.276;2023-09-19T06:11:01;14.90;1.00
9949;DHT22;5013;51.840;8.276;2023-09-19T06:13:29;14.90;1.00
9949;DHT22;5013;51.840;8.276;2023-09-19T06:15:55;15.00;1.00
9949;DHT22;5013;51.840;8.276;2023-09-19T06:18:25;15.00;1.00
9949;DHT22;5013;51.840;8.276;2023-09-19T06:20:51;15.10;99.90
9949;DHT22;5013;51.840;8.276;2023-09-19T06:23:17;15.30;99.90
9949;DHT22;5013;51.840;8.276;2023-09-19T06:25:43;15.50;99.90
9949;DHT22;5013;51.840;8.276;2023-09-19T06:28:09;15.60;1.00
9949;DHT22;5013;51.840;8.276;2023-09-19T06:30:38;15.70;1.00
9949;DHT22;5013;51.840;8.276;2023-09-19T06:33:07;15.70;1.00
9949;DHT22;5013;51.840;8.276;2023-09-19T06:35:33;15.80;1.00
9949;DHT22;5013;51.840;8.276;2023-09-19T06:38:02;15.70;1.00
9949;DHT22;5013;51.840;8.276;2023-09-19T06:40:28;15.80;1.00
9949;DHT22;5013;51.840;8.276;2023-09-19T06:42:56;15.70;1.00
9949;DHT22;5013;51.840;8.276;2023-09-19T06:45:22;15.80;1.00
9949;DHT22;5013;51.840;8.276;2023-09-19T06:47:52;15.80;1.00
9949;DHT22;5013;51.840;8.276;2023-09-19T06:50:18;15.80;1.00
9949;DHT22;5013;51.840;8.276;2023-09-19T06:52:44;15.80;1.00
9949;DHT22;5013;51.840;8.276;2023-09-19T06:55:11;15.80;1.00
9949;DHT22;5013;51.840;8.276;2023-09-19T06:57:39;15.80;1.00
9949;DHT22;5013;51.840;8.276;2023-09-19T07:00:06;15.70;1.00
9949;DHT22;5013;51.840;8.276;2023-09-19T07:03:02;15.90;1.00
9949;DHT22;5013;51.840;8.276;2023-09-19T07:05:30;15.90;1.00
9949;DHT22;5013;51.840;8.276;2023-09-19T07:07:57;16.00;1.00
9949;DHT22;5013;51.840;8.276;2023-09-19T07:10:26;16.00;99.90
9949;DHT22;5013;51.840;8.276;2023-09-19T07:12:59;16.00;1.00
9949;DHT22;5013;51.840;8.276;2023-09-19T07:15:29;15.90;1.00
9949;DHT22;5013;51.840;8.276;2023-09-19T07:17:56;15.90;1.00
9949;DHT22;5013;51.840;8.276;2023-09-19T07:20:23;16.00;1.00
9949;DHT22;5013;51.840;8.276;2023-09-19T07:22:51;16.10;1.00
9949;DHT22;5013;51.840;8.276;2023-09-19T07:25:17;16.10;99.90
9949;DHT22;5013;51.840;8.276;2023-09-19T07:27:43;16.10;99.90
9949;DHT22;5013;51.840;8.276;2023-09-19T07:30:10;16.10;99.90
9949;DHT22;5013;51.840;8.276;2023-09-19T07:32:37;16.20;99.90
9949;DHT22;5013;51.840;8.276;2023-09-19T07:35:04;16.20;99.90
9949;DHT22;5013;51.840;8.276;2023-09-19T07:37:31;16.40;95.90
9949;DHT22;5013;51.840;8.276;2023-09-19T07:40:02;16.30;1.00
9949;DHT22;5013;51.840;8.276;2023-09-19T07:42:33;16.40;99.90
9949;DHT22;5013;51.840;8.276;2023-09-19T07:45:01;16.60;99.90
9949;DHT22;5013;51.840;8.276;2023-09-19T07:47:26;16.60;1.00
9949;DHT22;5013;51.840;8.276;2023-09-19T07:49:53;16.60;1.00
9949;DHT22;5013;51.840;8.276;2023-09-19T07:52:18;16.70;1.00
9949;DHT22;5013;51.840;8.276;2023-09-19T07:54:44;16.70;1.00
9949;DHT22;5013;51.840;8.276;2023-09-19T07:57:10;16.80;1.00
9949;DHT22;5013;51.840;8.276;2023-09-19T07:59:37;16.90;1.00
9949;DHT22;5013;51.840;8.276;2023-09-19T08:02:04;16.90;1.00
9949;DHT22;5013;51.840;8.276;2023-09-19T08:04:30;17.00;1.00
9949;DHT22;5013;51.840;8.276;2023-09-19T08:06:59;17.10;99.90
9949;DHT22;5013;51.840;8.276;2023-09-19T08:09:28;17.10;99.90
9949;DHT22;5013;51.840;8.276;2023-09-19T08:11:58;17.20;99.90
9949;DHT22;5013;51.840;8.276;2023-09-19T08:14:24;17.30;99.90
9949;DHT22;5013;51.840;8.276;2023-09-19T08:16:51;17.50;1.00
9949;DHT22;5013;51.840;8.276;2023-09-19T08:19:17;17.70;99.90
9949;DHT22;5013;51.840;8.276;2023-09-19T08:21:42;17.70;80.80
9949;DHT22;5013;51.840;8.276;2023-09-19T08:24:12;17.70;99.90
9949;DHT22;5013;51.840;8.276;2023-09-19T08:26:39;17.80;82.20
9949;DHT22;5013;51.840;8.276;2023-09-19T08:29:05;17.70;99.90
9949;DHT22;5013;51.840;8.276;2023-09-19T08:31:32;17.80;16.60
9949;DHT22;5013;51.840;8.276;2023-09-19T08:33:59;17.90;99.90
9949;DHT22;5013;51.840;8.276;2023-09-19T08:36:25;17.80;99.50
9949;DHT22;5013;51.840;8.276;2023-09-19T08:38:50;17.80;99.90
9949;DHT22;5013;51.840;8.276;2023-09-19T08:41:17;17.90;99.90
9949;DHT22;5013;51.840;8.276;2023-09-19T08:43:42;17.90;99.90
9949;DHT22;5013;51.840;8.276;2023-09-19T08:46:16;18.10;26.50
9949;DHT22;5013;51.840;8.276;2023-09-19T08:49:05;18.10;84.90
9949;DHT22;5013;51.840;8.276;2023-09-19T08:51:41;18.10;74.20
9949;DHT22;5013;51.840;8.276;2023-09-19T08:54:17;18.30;99.90
9949;DHT22;5013;51.840;8.276;2023-09-19T08:56:46;18.10;99.90
9949;DHT22;5013;51.840;8.276;2023-09-19T08:59:13;18.10;99.90
9949;DHT22;5013;51.840;8.276;2023-09-19T09:01:40;18.20;1.00
9949;DHT22;5013;51.840;8.276;2023-09-19T09:04:09;18.30;1.00
9949;DHT22;5013;51.840;8.276;2023-09-19T09:06:38;18.30;89.70
9949;DHT22;5013;51.840;8.276;2023-09-19T09:09:05;18.40;1.00
9949;DHT22;5013;51.840;8.276;2023-09-19T09:11:33;18.40;1.00
9949;DHT22;5013;51.840;8.276;2023-09-19T09:13:59;18.20;1.00
9949;DHT22;5013;51.840;8.276;2023-09-19T09:16:24;18.30;1.00
9949;DHT22;5013;51.840;8.276;2023-09-19T09:18:51;18.30;1.00
9949;DHT22;5013;51.840;8.276;2023-09-19T09:21:18;18.20;1.00
9949;DHT22;5013;51.840;8.276;2023-09-19T09:23:44;18.30;1.00
9949;DHT22;5013;51.840;8.276;2023-09-19T09:26:09;18.60;31.00
9949;DHT22;5013;51.840;8.276;2023-09-19T09:28:35;18.60;1.00
9949;DHT22;5013;51.840;8.276;2023-09-19T09:31:04;18.70;1.00
9949;DHT22;5013;51.840;8.276;2023-09-19T09:33:35;18.60;1.00
9949;DHT22;5013;51.840;8.276;2023-09-19T09:36:02;18.40;1.00
9949;DHT22;5013;51.840;8.276;2023-09-19T09:38:45;18.50;1.00
9949;DHT22;5013;51.840;8.276;2023-09-19T09:41:11;18.50;1.00
9949;DHT22;5013;51.840;8.276;2023-09-19T09:43:41;18.70;1.00
9949;DHT22;5013;51.840;8.276;2023-09-19T09:46:14;18.70;1.00
9949;DHT22;5013;51.840;8.276;2023-09-19T09:48:46;18.80;1.00
9949;DHT22;5013;51.840;8.276;2023-09-19T09:51:32;18.70;1.00
9949;DHT22;5013;51.840;8.276;2023-09-19T09:54:12;18.60;1.00
9949;DHT22;5013;51.840;8.276;2023-09-19T09:56:59;18.50;1.00
9949;DHT22;5013;51.840;8.276;2023-09-19T09:59:52;18.70;1.00
9949;DHT22;5013;51.840;8.276;2023-09-19T10:04:59;19.00;1.00
9949;DHT22;5013;51.840;8.276;2023-09-19T10:07:45;19.00;1.00
9949;DHT22;5013;51.840;8.276;2023-09-19T10:12:55;19.20;99.90
9949;DHT22;5013;51.840;8.276;2023-09-19T10:15:32;19.10;99.90
9949;DHT22;5013;51.840;8.276;2023-09-19T10:18:00;19.20;1.00
9949;DHT22;5013;51.840;8.276;2023-09-19T10:20:28;19.40;99.90
9949;DHT22;5013;51.840;8.276;2023-09-19T10:23:02;19.30;99.90
9949;DHT22;5013;51.840;8.276;2023-09-19T10:25:29;19.30;99.90
9949;DHT22;5013;51.840;8.276;2023-09-19T10:27:57;19.30;99.90
9949;DHT22;5013;51.840;8.276;2023-09-19T10:30:25;19.40;99.90
9949;DHT22;5013;51.840;8.276;2023-09-19T10:33:01;19.50;99.90
9949;DHT22;5013;51.840;8.276;2023-09-19T10:35:28;19.60;99.90
9949;DHT22;5013;51.840;8.276;2023-09-19T10:38:00;19.70;99.90
9949;DHT22;5013;51.840;8.276;2023-09-19T10:40:27;19.90;99.90
9949;DHT22;5013;51.840;8.276;2023-09-19T10:43:05;19.90;99.90
9949;DHT22;5013;51.840;8.276;2023-09-19T10:45:35;20.10;99.90
9949;DHT22;5013;51.840;8.276;2023-09-19T10:48:04;20.10;99.90
9949;DHT22;5013;51.840;8.276;2023-09-19T10:50:35;20.00;60.40
9949;DHT22;5013;51.840;8.276;2023-09-19T10:53:04;19.90;45.20
9949;DHT22;5013;51.840;8.276;2023-09-19T10:55:34;20.10;99.90
9949;DHT22;5013;51.840;8.276;2023-09-19T10:58:01;20.20;82.40
9949;DHT22;5013;51.840;8.276;2023-09-19T11:00:30;20.40;99.90
9949;DHT22;5013;51.840;8.276;2023-09-19T11:03:25;20.50;45.70
9949;DHT22;5013;51.840;8.276;2023-09-19T11:06:13;20.60;93.70
9949;DHT22;5013;51.840;8.276;2023-09-19T11:08:58;20.70;34.20
9949;DHT22;5013;51.840;8.276;2023-09-19T11:11:39;20.60;1.00
9949;DHT22;5013;51.840;8.276;2023-09-19T11:16:39;20.50;1.00
9949;DHT22;5013;51.840;8.276;2023-09-19T11:19:05;20.60;1.00
9949;DHT22;5013;51.840;8.276;2023-09-19T11:26:50;21.00;1.00
9949;DHT22;5013;51.840;8.276;2023-09-19T11:29:30;21.10;1.00
9949;DHT22;5013;51.840;8.276;2023-09-19T11:31:57;21.20;1.00
9949;DHT22;5013;51.840;8.276;2023-09-19T11:34:44;20.90;1.00
9949;DHT22;5013;51.840;8.276;2023-09-19T11:40:07;21.00;1.00
9949;DHT22;5013;51.840;8.276;2023-09-19T11:42:45;21.20;1.00
9949;DHT22;5013;51.840;8.276;2023-09-19T11:48:06;21.20;1.00
9949;DHT22;5013;51.840;8.276;2023-09-19T11:50:33;21.20;1.00
9949;DHT22;5013;51.840;8.276;2023-09-19T11:53:01;21.40;1.00
9949;DHT22;5013;51.840;8.276;2023-09-19T11:55:28;21.40;1.00
9949;DHT22;5013;51.840;8.276;2023-09-19T11:57:58;21.40;1.00
9949;DHT22;5013;51.840;8.276;2023-09-19T12:00:24;21.40;1.00
9949;DHT22;5013;51.840;8.276;2023-09-19T12:02:55;21.40;1.00
9949;DHT22;5013;51.840;8.276;2023-09-19T12:05:29;21.50;1.00
9949;DHT22;5013;51.840;8.276;2023-09-19T12:07:56;21.60;1.00
9949;DHT22;5013;51.840;8.276;2023-09-19T12:10:22;21.80;1.00
9949;DHT22;5013;51.840;8.276;2023-09-19T12:12:49;21.80;1.00
9949;DHT22;5013;51.840;8.276;2023-09-19T12:15:16;21.70;1.00
9949;DHT22;5013;51.840;8.276;2023-09-19T12:17:48;21.70;1.00
9949;DHT22;5013;51.840;8.276;2023-09-19T12:20:14;21.70;1.00
9949;DHT22;5013;51.840;8.276;2023-09-19T12:22:41;21.90;1.00
9949;DHT22;5013;51.840;8.276;2023-09-19T12:25:08;22.00;1.00
9949;DHT22;5013;51.840;8.276;2023-09-19T12:27:49;22.10;1.00
9949;DHT22;5013;51.840;8.276;2023-09-19T12:30:18;22.00;1.00
9949;DHT22;5013;51.840;8.276;2023-09-19T12:32:46;21.70;1.00
9949;DHT22;5013;51.840;8.276;2023-09-19T12:35:33;21.80;1.00
9949;DHT22;5013;51.840;8.276;2023-09-19T12:38:02;21.90;1.00
9949;DHT22;5013;51.840;8.276;2023-09-19T12:40:29;21.70;1.00
9949;DHT22;5013;51.840;8.276;2023-09-19T12:42:59;21.90;1.00
9949;DHT22;5013;51.840;8.276;2023-09-19T12:45:26;22.00;1.00
9949;DHT22;5013;51.840;8.276;2023-09-19T12:51:09;22.10;1.00
9949;DHT22;5013;51.840;8.276;2023-09-19T12:53:43;22.00;1.00
9949;DHT22;5013;51.840;8.276;2023-09-19T12:56:15;21.90;1.00
9949;DHT22;5013;51.840;8.276;2023-09-19T12:58:50;21.80;1.00
9949;DHT22;5013;51.840;8.276;2023-09-19T13:01:16;21.70;1.00
9949;DHT22;5013;51.840;8.276;2023-09-19T13:03:42;21.70;1.00
9949;DHT22;5013;51.840;8.276;2023-09-19T13:06:08;21.80;1.00
9949;DHT22;5013;51.840;8.276;2023-09-19T13:08:37;21.60;1.00
9949;DHT22;5013;51.840;8.276;2023-09-19T13:13:47;21.70;1.00
9949;DHT22;5013;51.840;8.276;2023-09-19T13:16:15;21.70;1.00
9949;DHT22;5013;51.840;8.276;2023-09-19T13:18:50;21.60;1.00
9949;DHT22;5013;51.840;8.276;2023-09-19T13:23:55;21.50;1.00
9949;DHT22;5013;51.840;8.276;2023-09-19T13:26:27;21.40;1.00
9949;DHT22;5013;51.840;8.276;2023-09-19T13:28:54;21.70;1.00
9949;DHT22;5013;51.840;8.276;2023-09-19T13:31:20;21.70;1.00
9949;DHT22;5013;51.840;8.276;2023-09-19T13:33:46;21.70;1.00
9949;DHT22;5013;51.840;8.276;2023-09-19T13:36:12;21.80;1.00
9949;DHT22;5013;51.840;8.276;2023-09-19T13:38:42;21.90;1.00
9949;DHT22;5013;51.840;8.276;2023-09-19T13:41:12;22.00;1.00
9949;DHT22;5013;51.840;8.276;2023-09-19T13:43:38;21.90;1.00
9949;DHT22;5013;51.840;8.276;2023-09-19T13:46:04;21.90;1.00
9949;DHT22;5013;51.840;8.276;2023-09-19T13:48:30;22.00;1.00
9949;DHT22;5013;51.840;8.276;2023-09-19T13:50:56;21.90;1.00
9949;DHT22;5013;51.840;8.276;2023-09-19T13:53:22;21.80;1.00
9949;DHT22;5013;51.840;8.276;2023-09-19T13:55:48;21.70;1.00
9949;DHT22;5013;51.840;8.276;2023-09-19T13:58:14;21.70;1.00
9949;DHT22;5013;51.840;8.276;2023-09-19T14:00:40;21.80;1.00
9949;DHT22;5013;51.840;8.276;2023-09-19T14:03:06;21.90;1.00
9949;DHT22;5013;51.840;8.276;2023-09-19T14:05:32;21.90;1.00
9949;DHT22;5013;51.840;8.276;2023-09-19T14:07:58;21.90;1.00
9949;DHT22;5013;51.840;8.276;2023-09-19T14:10:24;22.10;1.00
9949;DHT22;5013;51.840;8.276;2023-09-19T14:12:53;22.00;1.00
9949;DHT22;5013;51.840;8.276;2023-09-19T14:15:18;22.10;1.00
9949;DHT22;5013;51.840;8.276;2023-09-19T14:17:44;22.10;1.00
9949;DHT22;5013;51.840;8.276;2023-09-19T14:20:12;22.30;1.00
9949;DHT22;5013;51.840;8.276;2023-09-19T14:22:38;22.20;1.00
9949;DHT22;5013;51.840;8.276;2023-09-19T14:25:04;22.20;1.00
9949;DHT22;5013;51.840;8.276;2023-09-19T14:27:31;22.00;1.00
9949;DHT22;5013;51.840;8.276;2023-09-19T14:29:57;22.00;1.00
9949;DHT22;5013;51.840;8.276;2023-09-19T14:32:23;22.00;1.00
9949;DHT22;5013;51.840;8.276;2023-09-19T14:34:49;21.80;1.00
9949;DHT22;5013;51.840;8.276;2023-09-19T14:37:15;21.90;1.00
9949;DHT22;5013;51.840;8.276;2023-09-19T14:39:41;21.80;1.00
9949;DHT22;5013;51.840;8.276;2023-09-19T14:42:10;21.70;1.00
9949;DHT22;5013;51.840;8.276;2023-09-19T14:44:36;21.80;1.00
9949;DHT22;5013;51.840;8.276;2023-09-19T14:47:03;21.70;1.00
9949;DHT22;5013;51.840;8.276;2023-09-19T14:49:33;21.90;1.00
9949;DHT22;5013;51.840;8.276;2023-09-19T14:51:59;21.80;1.00
9949;DHT22;5013;51.840;8.276;2023-09-19T14:54:24;21.70;1.00
9949;DHT22;5013;51.840;8.276;2023-09-19T14:56:50;21.70;1.00
9949;DHT22;5013;51.840;8.276;2023-09-19T14:59:21;21.60;1.00
9949;DHT22;5013;51.840;8.276;2023-09-19T15:01:47;21.30;1.00
9949;DHT22;5013;51.840;8.276;2023-09-19T15:04:15;21.30;1.00
9949;DHT22;5013;51.840;8.276;2023-09-19T15:06:41;21.20;1.00
9949;DHT22;5013;51.840;8.276;2023-09-19T15:09:06;21.20;1.00
9949;DHT22;5013;51.840;8.276;2023-09-19T15:11:34;21.10;1.00
9949;DHT22;5013;51.840;8.276;2023-09-19T15:13:59;21.00;1.00
9949;DHT22;5013;51.840;8.276;2023-09-19T15:16:26;20.90;1.00
9949;DHT22;5013;51.840;8.276;2023-09-19T15:18:52;20.90;1.00
9949;DHT22;5013;51.840;8.276;2023-09-19T15:21:18;21.00;1.00
9949;DHT22;5013;51.840;8.276;2023-09-19T15:23:43;21.00;1.00
9949;DHT22;5013;51.840;8.276;2023-09-19T15:26:13;21.10;1.00
9949;DHT22;5013;51.840;8.276;2023-09-19T15:28:39;21.10;1.00
9949;DHT22;5013;51.840;8.276;2023-09-19T15:31:08;21.10;1.00
9949;DHT22;5013;51.840;8.276;2023-09-19T15:33:34;21.00;1.00
9949;DHT22;5013;51.840;8.276;2023-09-19T15:36:08;20.90;1.00
9949;DHT22;5013;51.840;8.276;2023-09-19T15:41:25;20.80;1.00
9949;DHT22;5013;51.840;8.276;2023-09-19T15:43:51;20.70;1.00
9949;DHT22;5013;51.840;8.276;2023-09-19T15:46:18;20.70;1.00
9949;DHT22;5013;51.840;8.276;2023-09-19T15:48:44;20.70;1.00
9949;DHT22;5013;51.840;8.276;2023-09-19T15:51:11;20.80;1.00
9949;DHT22;5013;51.840;8.276;2023-09-19T15:53:45;20.80;1.00
9949;DHT22;5013;51.840;8.276;2023-09-19T15:56:12;20.80;1.00
9949;DHT22;5013;51.840;8.276;2023-09-19T15:58:49;20.80;1.00
9949;DHT22;5013;51.840;8.276;2023-09-19T16:01:16;20.70;1.00
9949;DHT22;5013;51.840;8.276;2023-09-19T16:03:51;20.80;1.00
9949;DHT22;5013;51.840;8.276;2023-09-19T16:06:20;20.70;1.00
9949;DHT22;5013;51.840;8.276;2023-09-19T16:08:50;20.60;1.00
9949;DHT22;5013;51.840;8.276;2023-09-19T16:11:17;20.50;1.00
9949;DHT22;5013;51.840;8.276;2023-09-19T16:13:44;20.50;1.00
9949;DHT22;5013;51.840;8.276;2023-09-19T16:16:13;20.40;1.00
9949;DHT22;5013;51.840;8.276;2023-09-19T16:18:52;20.30;1.00
9949;DHT22;5013;51.840;8.276;2023-09-19T16:21:19;20.30;1.00
9949;DHT22;5013;51.840;8.276;2023-09-19T16:23:49;20.20;1.00
9949;DHT22;5013;51.840;8.276;2023-09-19T16:26:16;20.20;1.00
9949;DHT22;5013;51.840;8.276;2023-09-19T16:28:45;20.20;1.00
9949;DHT22;5013;51.840;8.276;2023-09-19T16:31:11;20.20;1.00
9949;DHT22;5013;51.840;8.276;2023-09-19T16:33:38;20.10;1.00
9949;DHT22;5013;51.840;8.276;2023-09-19T16:36:09;20.00;1.00
9949;DHT22;5013;51.840;8.276;2023-09-19T16:38:36;19.90;1.00
9949;DHT22;5013;51.840;8.276;2023-09-19T16:41:02;19.90;1.00
9949;DHT22;5013;51.840;8.276;2023-09-19T16:43:30;19.80;1.00
9949;DHT22;5013;51.840;8.276;2023-09-19T16:45:57;19.80;1.00
9949;DHT22;5013;51.840;8.276;2023-09-19T16:48:23;19.70;1.00
9949;DHT22;5013;51.840;8.276;2023-09-19T16:50:50;19.70;1.00
9949;DHT22;5013;51.840;8.276;2023-09-19T16:53:16;19.60;1.00
9949;DHT22;5013;51.840;8.276;2023-09-19T16:55:45;19.60;1.00
9949;DHT22;5013;51.840;8.276;2023-09-19T16:58:15;19.50;1.00
9949;DHT22;5013;51.840;8.276;2023-09-19T17:00:41;19.50;1.00
9949;DHT22;5013;51.840;8.276;2023-09-19T17:03:12;19.50;26.10